sensor_id;sensor_type;location;lat;lon;timestamp;temperature;humidity
8539;DHT22;4307;53.868;11.680;2022-08-03T00:00:51;22.50;83.70
8539;DHT22;4307;53.868;11.680;2022-08-03T00:03:17;22.50;84.00
8539;DHT22;4307;53.868;11.680;2022-08-03T00:05:44;22.40;84.10
8539;DHT22;4307;53.868;11.680;2022-08-03T00:08:12;22.40;84.20
8539;DHT22;4307;53.868;11.680;2022-08-03T00:10:39;22.40;84.40
8539;DHT22;4307;53.868;11.680;2022-08-03T00:13:06;22.40;84.60
8539;DHT22;4307;53.868;11.680;2022-08-03T00:15:32;22.40;84.80
8539;DHT22;4307;53.868;11.680;2022-08-03T00:17:59;22.40;84.80
8539;DHT22;4307;53.868;11.680;2022-08-03T00:20:26;22.40;84.80
8539;DHT22;4307;53.868;11.680;2022-08-03T00:22:53;22.40;84.90
8539;DHT22;4307;53.868;11.680;2022-08-03T00:25:21;22.40;84.90
8539;DHT22;4307;53.868;11.680;2022-08-03T00:27:47;22.40;84.80
8539;DHT22;4307;53.868;11.680;2022-08-03T00:30:14;22.40;84.90
8539;DHT22;4307;53.868;11.680;2022-08-03T00:32:41;22.40;84.80
8539;DHT22;4307;53.868;11.680;2022-08-03T00:35:08;22.30;84.50
8539;DHT22;4307;53.868;11.680;2022-08-03T00:37:34;22.30;84.60
8539;DHT22;4307;53.868;11.680;2022-08-03T00:40:01;22.30;84.70
8539;DHT22;4307;53.868;11.680;2022-08-03T00:42:29;22.30;84.80
8539;DHT22;4307;53.868;11.680;2022-08-03T00:44:56;22.30;84.90
8539;DHT22;4307;53.868;11.680;2022-08-03T00:47:23;22.30;84.80
8539;DHT22;4307;53.868;11.680;2022-08-03T00:49:49;22.30;84.90
8539;DHT22;4307;53.868;11.680;2022-08-03T00:52:16;22.30;84.90
8539;DHT22;4307;53.868;11.680;2022-08-03T00:54:43;22.20;85.00
8539;DHT22;4307;53.868;11.680;2022-08-03T00:57:09;22.30;85.10
8539;DHT22;4307;53.868;11.680;2022-08-03T00:59:37;22.20;85.00
8539;DHT22;4307;53.868;11.680;2022-08-03T01:02:04;22.20;85.10
8539;DHT22;4307;53.868;11.680;2022-08-03T01:04:31;22.20;85.20
8539;DHT22;4307;53.868;11.680;2022-08-03T01:07:05;22.20;85.30
8539;DHT22;4307;53.868;11.680;2022-08-03T01:09:38;22.20;85.50
8539;DHT22;4307;53.868;11.680;2022-08-03T01:12:12;22.10;86.00
8539;DHT22;4307;53.868;11.680;2022-08-03T01:14:46;22.10;86.60
8539;DHT22;4307;53.868;11.680;2022-08-03T01:17:27;22.00;87.70
8539;DHT22;4307;53.868;11.680;2022-08-03T01:20:00;22.00;87.30
8539;DHT22;4307;53.868;11.680;2022-08-03T01:22:58;21.90;87.40
8539;DHT22;4307;53.868;11.680;2022-08-03T01:25:33;21.90;87.70
8539;DHT22;4307;53.868;11.680;2022-08-03T01:28:11;21.90;87.90
8539;DHT22;4307;53.868;11.680;2022-08-03T01:30:45;21.80;87.90
8539;DHT22;4307;53.868;11.680;2022-08-03T01:33:18;21.80;87.80
8539;DHT22;4307;53.868;11.680;2022-08-03T01:35:47;21.80;87.70
8539;DHT22;4307;53.868;11.680;2022-08-03T01:38:21;21.70;87.40
8539;DHT22;4307;53.868;11.680;2022-08-03T01:40:50;21.70;87.20
8539;DHT22;4307;53.868;11.680;2022-08-03T01:43:22;21.70;87.10
8539;DHT22;4307;53.868;11.680;2022-08-03T01:45:51;21.60;87.10
8539;DHT22;4307;53.868;11.680;2022-08-03T01:48:20;21.60;87.20
8539;DHT22;4307;53.868;11.680;2022-08-03T01:50:48;21.60;87.70
8539;DHT22;4307;53.868;11.680;2022-08-03T01:53:16;21.60;88.00
8539;DHT22;4307;53.868;11.680;2022-08-03T01:55:43;21.50;88.20
8539;DHT22;4307;53.868;11.680;2022-08-03T01:58:12;21.50;88.50
8539;DHT22;4307;53.868;11.680;2022-08-03T02:00:41;21.40;89.60
8539;DHT22;4307;53.868;11.680;2022-08-03T02:03:12;21.30;90.10
8539;DHT22;4307;53.868;11.680;2022-08-03T02:05:40;21.30;90.50
8539;DHT22;4307;53.868;11.680;2022-08-03T02:08:09;21.20;90.70
8539;DHT22;4307;53.868;11.680;2022-08-03T02:10:39;21.10;90.90
8539;DHT22;4307;53.868;11.680;2022-08-03T02:13:08;21.10;91.10
8539;DHT22;4307;53.868;11.680;2022-08-03T02:15:37;21.00;91.30
8539;DHT22;4307;53.868;11.680;2022-08-03T02:18:05;20.90;91.50
8539;DHT22;4307;53.868;11.680;2022-08-03T02:20:34;20.90;91.70
8539;DHT22;4307;53.868;11.680;2022-08-03T02:23:03;20.80;91.80
8539;DHT22;4307;53.868;11.680;2022-08-03T02:25:31;20.80;91.90
8539;DHT22;4307;53.868;11.680;2022-08-03T02:28:07;20.80;92.10
8539;DHT22;4307;53.868;11.680;2022-08-03T02:30:37;20.80;92.10
8539;DHT22;4307;53.868;11.680;2022-08-03T02:33:06;20.80;92.20
8539;DHT22;4307;53.868;11.680;2022-08-03T02:35:36;20.80;92.10
8539;DHT22;4307;53.868;11.680;2022-08-03T02:38:07;20.80;92.10
8539;DHT22;4307;53.868;11.680;2022-08-03T02:40:35;20.80;92.10
8539;DHT22;4307;53.868;11.680;2022-08-03T02:43:07;20.80;92.20
8539;DHT22;4307;53.868;11.680;2022-08-03T02:45:35;20.70;92.50
8539;DHT22;4307;53.868;11.680;2022-08-03T02:48:05;20.70;92.80
8539;DHT22;4307;53.868;11.680;2022-08-03T02:50:33;20.60;93.00
8539;DHT22;4307;53.868;11.680;2022-08-03T02:53:02;20.50;93.30
8539;DHT22;4307;53.868;11.680;2022-08-03T02:55:29;20.50;93.60
8539;DHT22;4307;53.868;11.680;2022-08-03T02:57:58;20.40;93.70
8539;DHT22;4307;53.868;11.680;2022-08-03T03:00:25;20.30;93.90
8539;DHT22;4307;53.868;11.680;2022-08-03T03:02:53;20.30;94.10
8539;DHT22;4307;53.868;11.680;2022-08-03T03:05:21;20.20;94.10
8539;DHT22;4307;53.868;11.680;2022-08-03T03:07:48;20.20;94.30
8539;DHT22;4307;53.868;11.680;2022-08-03T03:10:17;20.10;94.40
8539;DHT22;4307;53.868;11.680;2022-08-03T03:12:44;20.20;94.30
8539;DHT22;4307;53.868;11.680;2022-08-03T03:15:12;20.20;94.40
8539;DHT22;4307;53.868;11.680;2022-08-03T03:17:38;20.20;94.10
8539;DHT22;4307;53.868;11.680;2022-08-03T03:20:07;20.30;93.90
8539;DHT22;4307;53.868;11.680;2022-08-03T03:22:34;20.30;93.90
8539;DHT22;4307;53.868;11.680;2022-08-03T03:25:01;20.30;93.90
8539;DHT22;4307;53.868;11.680;2022-08-03T03:27:30;20.30;93.80
8539;DHT22;4307;53.868;11.680;2022-08-03T03:29:57;20.30;93.60
8539;DHT22;4307;53.868;11.680;2022-08-03T03:32:25;20.30;93.60
8539;DHT22;4307;53.868;11.680;2022-08-03T03:34:53;20.30;93.80
8539;DHT22;4307;53.868;11.680;2022-08-03T03:37:20;20.30;93.90
8539;DHT22;4307;53.868;11.680;2022-08-03T03:39:47;20.30;93.90
8539;DHT22;4307;53.868;11.680;2022-08-03T03:42:13;20.30;94.20
8539;DHT22;4307;53.868;11.680;2022-08-03T03:44:41;20.30;94.50
8539;DHT22;4307;53.868;11.680;2022-08-03T03:47:08;20.30;94.80
8539;DHT22;4307;53.868;11.680;2022-08-03T03:49:35;20.30;95.10
8539;DHT22;4307;53.868;11.680;2022-08-03T03:52:02;20.30;95.20
8539;DHT22;4307;53.868;11.680;2022-08-03T03:54:38;20.30;95.40
8539;DHT22;4307;53.868;11.680;2022-08-03T03:57:05;20.30;95.30
8539;DHT22;4307;53.868;11.680;2022-08-03T03:59:32;20.30;95.20
8539;DHT22;4307;53.868;11.680;2022-08-03T04:02:00;20.30;95.30
8539;DHT22;4307;53.868;11.680;2022-08-03T04:04:27;20.30;95.10
8539;DHT22;4307;53.868;11.680;2022-08-03T04:07:11;20.30;94.90
8539;DHT22;4307;53.868;11.680;2022-08-03T04:09:55;20.40;94.60
8539;DHT22;4307;53.868;11.680;2022-08-03T04:12:41;20.40;94.40
8539;DHT22;4307;53.868;11.680;2022-08-03T04:15:08;20.50;94.30
8539;DHT22;4307;53.868;11.680;2022-08-03T04:17:40;20.50;94.10
8539;DHT22;4307;53.868;11.680;2022-08-03T04:20:08;20.60;93.80
8539;DHT22;4307;53.868;11.680;2022-08-03T04:22:36;20.60;93.70
8539;DHT22;4307;53.868;11.680;2022-08-03T04:25:07;20.70;93.60
8539;DHT22;4307;53.868;11.680;2022-08-03T04:27:37;20.80;93.40
8539;DHT22;4307;53.868;11.680;2022-08-03T04:30:06;20.90;93.30
8539;DHT22;4307;53.868;11.680;2022-08-03T04:32:37;21.00;93.20
8539;DHT22;4307;53.868;11.680;2022-08-03T04:35:05;21.20;93.10
8539;DHT22;4307;53.868;11.680;2022-08-03T04:37:38;21.30;93.00
8539;DHT22;4307;53.868;11.680;2022-08-03T04:40:07;21.40;92.80
8539;DHT22;4307;53.868;11.680;2022-08-03T04:42:36;21.50;92.60
8539;DHT22;4307;53.868;11.680;2022-08-03T04:45:04;21.60;92.30
8539;DHT22;4307;53.868;11.680;2022-08-03T04:47:32;21.70;92.10
8539;DHT22;4307;53.868;11.680;2022-08-03T04:50:01;21.80;91.90
8539;DHT22;4307;53.868;11.680;2022-08-03T04:52:28;21.90;91.80
8539;DHT22;4307;53.868;11.680;2022-08-03T04:54:55;22.00;91.60
8539;DHT22;4307;53.868;11.680;2022-08-03T04:57:22;22.10;91.40
8539;DHT22;4307;53.868;11.680;2022-08-03T04:59:50;22.20;91.10
8539;DHT22;4307;53.868;11.680;2022-08-03T05:02:18;22.30;90.90
8539;DHT22;4307;53.868;11.680;2022-08-03T05:04:45;22.40;90.70
8539;DHT22;4307;53.868;11.680;2022-08-03T05:07:14;22.50;90.50
8539;DHT22;4307;53.868;11.680;2022-08-03T05:09:41;22.60;90.60
8539;DHT22;4307;53.868;11.680;2022-08-03T05:12:08;22.60;90.10
8539;DHT22;4307;53.868;11.680;2022-08-03T05:14:36;22.70;89.50
8539;DHT22;4307;53.868;11.680;2022-08-03T05:17:03;22.70;89.30
8539;DHT22;4307;53.868;11.680;2022-08-03T05:19:30;22.80;88.80
8539;DHT22;4307;53.868;11.680;2022-08-03T05:21:56;22.80;88.70
8539;DHT22;4307;53.868;11.680;2022-08-03T05:24:25;22.90;88.70
8539;DHT22;4307;53.868;11.680;2022-08-03T05:26:51;23.00;88.50
8539;DHT22;4307;53.868;11.680;2022-08-03T05:29:18;23.00;88.30
8539;DHT22;4307;53.868;11.680;2022-08-03T05:31:45;23.20;87.80
8539;DHT22;4307;53.868;11.680;2022-08-03T05:34:11;23.20;87.50
8539;DHT22;4307;53.868;11.680;2022-08-03T05:36:38;23.30;87.50
8539;DHT22;4307;53.868;11.680;2022-08-03T05:39:05;23.50;87.40
8539;DHT22;4307;53.868;11.680;2022-08-03T05:41:33;23.60;86.90
8539;DHT22;4307;53.868;11.680;2022-08-03T05:43:59;23.60;86.70
8539;DHT22;4307;53.868;11.680;2022-08-03T05:46:27;23.80;86.70
8539;DHT22;4307;53.868;11.680;2022-08-03T05:48:53;23.90;86.40
8539;DHT22;4307;53.868;11.680;2022-08-03T05:51:20;24.00;86.30
8539;DHT22;4307;53.868;11.680;2022-08-03T05:53:47;24.10;86.10
8539;DHT22;4307;53.868;11.680;2022-08-03T05:56:14;24.20;85.70
8539;DHT22;4307;53.868;11.680;2022-08-03T05:58:42;24.30;85.50
8539;DHT22;4307;53.868;11.680;2022-08-03T06:01:09;24.40;85.30
8539;DHT22;4307;53.868;11.680;2022-08-03T06:03:36;24.50;85.30
8539;DHT22;4307;53.868;11.680;2022-08-03T06:06:03;24.60;85.00
8539;DHT22;4307;53.868;11.680;2022-08-03T06:08:30;24.70;84.80
8539;DHT22;4307;53.868;11.680;2022-08-03T06:10:56;24.80;84.80
8539;DHT22;4307;53.868;11.680;2022-08-03T06:13:23;24.90;84.30
8539;DHT22;4307;53.868;11.680;2022-08-03T06:15:51;25.00;84.10
8539;DHT22;4307;53.868;11.680;2022-08-03T06:18:19;25.10;83.90
8539;DHT22;4307;53.868;11.680;2022-08-03T06:20:46;25.30;83.60
8539;DHT22;4307;53.868;11.680;2022-08-03T06:23:12;25.40;83.10
8539;DHT22;4307;53.868;11.680;2022-08-03T06:25:39;25.40;82.40
8539;DHT22;4307;53.868;11.680;2022-08-03T06:28:06;25.60;82.30
8539;DHT22;4307;53.868;11.680;2022-08-03T06:30:32;25.70;81.70
8539;DHT22;4307;53.868;11.680;2022-08-03T06:33:01;25.70;81.20
8539;DHT22;4307;53.868;11.680;2022-08-03T06:35:28;25.70;80.90
8539;DHT22;4307;53.868;11.680;2022-08-03T06:37:54;25.70;80.70
8539;DHT22;4307;53.868;11.680;2022-08-03T06:40:22;25.80;80.50
8539;DHT22;4307;53.868;11.680;2022-08-03T06:42:54;25.80;80.20
8539;DHT22;4307;53.868;11.680;2022-08-03T06:45:21;25.90;80.30
8539;DHT22;4307;53.868;11.680;2022-08-03T06:47:59;26.10;80.10
8539;DHT22;4307;53.868;11.680;2022-08-03T06:50:27;26.20;79.50
8539;DHT22;4307;53.868;11.680;2022-08-03T06:52:54;26.30;79.30
8539;DHT22;4307;53.868;11.680;2022-08-03T06:55:20;26.50;79.20
8539;DHT22;4307;53.868;11.680;2022-08-03T06:57:47;26.60;79.10
8539;DHT22;4307;53.868;11.680;2022-08-03T07:00:14;26.70;78.90
8539;DHT22;4307;53.868;11.680;2022-08-03T07:02:41;26.80;78.40
8539;DHT22;4307;53.868;11.680;2022-08-03T07:05:08;26.90;78.00
8539;DHT22;4307;53.868;11.680;2022-08-03T07:07:37;27.00;77.80
8539;DHT22;4307;53.868;11.680;2022-08-03T07:10:05;27.00;77.40
8539;DHT22;4307;53.868;11.680;2022-08-03T07:12:33;27.20;77.40
8539;DHT22;4307;53.868;11.680;2022-08-03T07:15:00;27.30;77.10
8539;DHT22;4307;53.868;11.680;2022-08-03T07:17:28;27.50;76.90
8539;DHT22;4307;53.868;11.680;2022-08-03T07:19:55;27.70;77.30
8539;DHT22;4307;53.868;11.680;2022-08-03T07:22:22;27.80;75.90
8539;DHT22;4307;53.868;11.680;2022-08-03T07:24:50;27.90;75.70
8539;DHT22;4307;53.868;11.680;2022-08-03T07:27:17;28.00;75.60
8539;DHT22;4307;53.868;11.680;2022-08-03T07:29:44;28.20;75.30
8539;DHT22;4307;53.868;11.680;2022-08-03T07:32:10;28.30;74.80
8539;DHT22;4307;53.868;11.680;2022-08-03T07:34:39;28.60;74.60
8539;DHT22;4307;53.868;11.680;2022-08-03T07:37:10;28.70;74.30
8539;DHT22;4307;53.868;11.680;2022-08-03T07:39:37;28.90;74.00
8539;DHT22;4307;53.868;11.680;2022-08-03T07:42:05;29.10;73.70
8539;DHT22;4307;53.868;11.680;2022-08-03T07:44:31;29.20;73.50
8539;DHT22;4307;53.868;11.680;2022-08-03T07:46:58;29.40;72.90
8539;DHT22;4307;53.868;11.680;2022-08-03T07:49:25;29.50;72.80
8539;DHT22;4307;53.868;11.680;2022-08-03T07:51:51;29.60;72.60
8539;DHT22;4307;53.868;11.680;2022-08-03T07:54:32;29.60;71.70
8539;DHT22;4307;53.868;11.680;2022-08-03T07:56:59;29.70;71.50
8539;DHT22;4307;53.868;11.680;2022-08-03T07:59:27;29.70;71.40
8539;DHT22;4307;53.868;11.680;2022-08-03T08:01:53;29.80;71.20
8539;DHT22;4307;53.868;11.680;2022-08-03T08:04:21;29.90;71.50
8539;DHT22;4307;53.868;11.680;2022-08-03T08:06:47;30.00;70.60
8539;DHT22;4307;53.868;11.680;2022-08-03T08:09:14;30.10;70.20
8539;DHT22;4307;53.868;11.680;2022-08-03T08:11:41;30.10;69.70
8539;DHT22;4307;53.868;11.680;2022-08-03T08:14:08;30.10;69.10
8539;DHT22;4307;53.868;11.680;2022-08-03T08:16:36;30.20;69.00
8539;DHT22;4307;53.868;11.680;2022-08-03T08:19:03;30.30;69.00
8539;DHT22;4307;53.868;11.680;2022-08-03T08:21:30;30.40;68.70
8539;DHT22;4307;53.868;11.680;2022-08-03T08:23:57;30.40;68.60
8539;DHT22;4307;53.868;11.680;2022-08-03T08:26:24;30.50;68.20
8539;DHT22;4307;53.868;11.680;2022-08-03T08:28:51;30.50;67.90
8539;DHT22;4307;53.868;11.680;2022-08-03T08:31:17;30.60;67.50
8539;DHT22;4307;53.868;11.680;2022-08-03T08:33:45;30.70;67.10
8539;DHT22;4307;53.868;11.680;2022-08-03T08:36:12;30.60;66.90
8539;DHT22;4307;53.868;11.680;2022-08-03T08:38:39;30.70;66.80
8539;DHT22;4307;53.868;11.680;2022-08-03T08:41:07;30.80;66.00
8539;DHT22;4307;53.868;11.680;2022-08-03T08:43:34;30.80;65.80
8539;DHT22;4307;53.868;11.680;2022-08-03T08:46:01;30.80;65.40
8539;DHT22;4307;53.868;11.680;2022-08-03T08:48:29;30.70;65.50
8539;DHT22;4307;53.868;11.680;2022-08-03T08:50:59;30.60;65.00
8539;DHT22;4307;53.868;11.680;2022-08-03T08:53:28;30.60;66.30
8539;DHT22;4307;53.868;11.680;2022-08-03T08:55:58;30.60;66.00
8539;DHT22;4307;53.868;11.680;2022-08-03T08:58:28;30.70;65.60
8539;DHT22;4307;53.868;11.680;2022-08-03T09:00:55;30.80;65.70
8539;DHT22;4307;53.868;11.680;2022-08-03T09:03:22;30.80;65.20
8539;DHT22;4307;53.868;11.680;2022-08-03T09:05:49;30.90;65.30
8539;DHT22;4307;53.868;11.680;2022-08-03T09:08:18;30.90;65.20
8539;DHT22;4307;53.868;11.680;2022-08-03T09:10:45;30.90;64.80
8539;DHT22;4307;53.868;11.680;2022-08-03T09:13:11;30.90;64.20
8539;DHT22;4307;53.868;11.680;2022-08-03T09:15:38;30.90;63.80
8539;DHT22;4307;53.868;11.680;2022-08-03T09:18:06;30.90;63.80
8539;DHT22;4307;53.868;11.680;2022-08-03T09:20:34;30.90;63.70
8539;DHT22;4307;53.868;11.680;2022-08-03T09:23:03;30.90;63.80
8539;DHT22;4307;53.868;11.680;2022-08-03T09:25:32;31.10;63.50
8539;DHT22;4307;53.868;11.680;2022-08-03T09:28:08;31.10;63.60
8539;DHT22;4307;53.868;11.680;2022-08-03T09:30:36;31.30;62.90
8539;DHT22;4307;53.868;11.680;2022-08-03T09:33:04;31.40;62.50
8539;DHT22;4307;53.868;11.680;2022-08-03T09:35:31;31.40;62.20
8539;DHT22;4307;53.868;11.680;2022-08-03T09:38:11;31.50;62.60
8539;DHT22;4307;53.868;11.680;2022-08-03T09:40:40;31.60;62.20
8539;DHT22;4307;53.868;11.680;2022-08-03T09:43:07;31.50;61.70
8539;DHT22;4307;53.868;11.680;2022-08-03T09:45:34;31.60;62.00
8539;DHT22;4307;53.868;11.680;2022-08-03T09:48:25;31.50;61.70
8539;DHT22;4307;53.868;11.680;2022-08-03T09:50:54;31.40;62.10
8539;DHT22;4307;53.868;11.680;2022-08-03T09:53:21;31.50;62.10
8539;DHT22;4307;53.868;11.680;2022-08-03T09:55:53;31.50;61.60
8539;DHT22;4307;53.868;11.680;2022-08-03T09:58:21;31.40;62.20
8539;DHT22;4307;53.868;11.680;2022-08-03T10:00:56;31.60;62.60
8539;DHT22;4307;53.868;11.680;2022-08-03T10:03:25;31.80;63.20
8539;DHT22;4307;53.868;11.680;2022-08-03T10:05:52;31.90;61.70
8539;DHT22;4307;53.868;11.680;2022-08-03T10:08:19;31.90;61.30
8539;DHT22;4307;53.868;11.680;2022-08-03T10:10:49;31.80;61.30
8539;DHT22;4307;53.868;11.680;2022-08-03T10:13:21;31.90;61.80
8539;DHT22;4307;53.868;11.680;2022-08-03T10:15:48;32.00;61.60
8539;DHT22;4307;53.868;11.680;2022-08-03T10:18:15;32.00;61.00
8539;DHT22;4307;53.868;11.680;2022-08-03T10:20:45;32.00;61.30
8539;DHT22;4307;53.868;11.680;2022-08-03T10:23:16;32.10;62.00
8539;DHT22;4307;53.868;11.680;2022-08-03T10:25:45;32.10;61.80
8539;DHT22;4307;53.868;11.680;2022-08-03T10:28:15;32.30;61.90
8539;DHT22;4307;53.868;11.680;2022-08-03T10:30:48;32.40;61.20
8539;DHT22;4307;53.868;11.680;2022-08-03T10:33:17;32.40;60.40
8539;DHT22;4307;53.868;11.680;2022-08-03T10:35:46;32.40;60.50
8539;DHT22;4307;53.868;11.680;2022-08-03T10:38:18;32.40;60.70
8539;DHT22;4307;53.868;11.680;2022-08-03T10:40:45;32.30;60.80
8539;DHT22;4307;53.868;11.680;2022-08-03T10:43:18;32.30;61.40
8539;DHT22;4307;53.868;11.680;2022-08-03T10:45:48;32.20;60.70
8539;DHT22;4307;53.868;11.680;2022-08-03T10:48:15;32.40;60.40
8539;DHT22;4307;53.868;11.680;2022-08-03T10:50:43;32.50;60.00
8539;DHT22;4307;53.868;11.680;2022-08-03T10:53:09;32.50;59.40
8539;DHT22;4307;53.868;11.680;2022-08-03T10:55:38;32.40;59.70
8539;DHT22;4307;53.868;11.680;2022-08-03T10:58:47;32.40;59.90
8539;DHT22;4307;53.868;11.680;2022-08-03T11:01:17;32.20;60.00
8539;DHT22;4307;53.868;11.680;2022-08-03T11:04:13;32.20;60.90
8539;DHT22;4307;53.868;11.680;2022-08-03T11:06:39;32.20;60.60
8539;DHT22;4307;53.868;11.680;2022-08-03T11:09:14;32.30;59.60
8539;DHT22;4307;53.868;11.680;2022-08-03T11:11:42;32.40;59.70
8539;DHT22;4307;53.868;11.680;2022-08-03T11:14:11;32.60;59.90
8539;DHT22;4307;53.868;11.680;2022-08-03T11:16:41;32.90;59.40
8539;DHT22;4307;53.868;11.680;2022-08-03T11:19:11;32.90;59.30
8539;DHT22;4307;53.868;11.680;2022-08-03T11:22:05;33.30;58.80
8539;DHT22;4307;53.868;11.680;2022-08-03T11:24:57;33.40;58.10
8539;DHT22;4307;53.868;11.680;2022-08-03T11:27:25;33.30;57.70
8539;DHT22;4307;53.868;11.680;2022-08-03T11:29:57;33.40;57.10
8539;DHT22;4307;53.868;11.680;2022-08-03T11:32:55;33.40;56.80
8539;DHT22;4307;53.868;11.680;2022-08-03T11:35:23;33.40;57.50
8539;DHT22;4307;53.868;11.680;2022-08-03T11:38:07;33.80;57.30
8539;DHT22;4307;53.868;11.680;2022-08-03T11:40:39;34.20;56.70
8539;DHT22;4307;53.868;11.680;2022-08-03T11:43:08;34.60;56.50
8539;DHT22;4307;53.868;11.680;2022-08-03T11:45:36;34.60;56.20
8539;DHT22;4307;53.868;11.680;2022-08-03T11:48:13;34.50;55.80
8539;DHT22;4307;53.868;11.680;2022-08-03T11:50:41;34.50;56.10
8539;DHT22;4307;53.868;11.680;2022-08-03T11:53:13;34.70;56.40
8539;DHT22;4307;53.868;11.680;2022-08-03T11:55:40;35.10;56.20
8539;DHT22;4307;53.868;11.680;2022-08-03T11:58:14;35.20;55.00
8539;DHT22;4307;53.868;11.680;2022-08-03T12:00:41;35.20;54.50
8539;DHT22;4307;53.868;11.680;2022-08-03T12:03:12;35.20;54.60
8539;DHT22;4307;53.868;11.680;2022-08-03T12:05:50;35.00;55.30
8539;DHT22;4307;53.868;11.680;2022-08-03T12:08:28;35.10;54.40
8539;DHT22;4307;53.868;11.680;2022-08-03T12:10:56;35.10;54.40
8539;DHT22;4307;53.868;11.680;2022-08-03T12:13:23;35.20;54.30
8539;DHT22;4307;53.868;11.680;2022-08-03T12:15:51;35.50;53.40
8539;DHT22;4307;53.868;11.680;2022-08-03T12:18:20;35.60;52.80
8539;DHT22;4307;53.868;11.680;2022-08-03T12:20:50;35.60;52.70
8539;DHT22;4307;53.868;11.680;2022-08-03T12:23:17;35.80;52.40
8539;DHT22;4307;53.868;11.680;2022-08-03T12:25:46;36.00;51.90
8539;DHT22;4307;53.868;11.680;2022-08-03T12:28:15;36.20;51.30
8539;DHT22;4307;53.868;11.680;2022-08-03T12:30:45;36.00;50.90
8539;DHT22;4307;53.868;11.680;2022-08-03T12:33:23;35.70;51.70
8539;DHT22;4307;53.868;11.680;2022-08-03T12:36:04;35.90;51.90
8539;DHT22;4307;53.868;11.680;2022-08-03T12:38:33;36.20;52.40
8539;DHT22;4307;53.868;11.680;2022-08-03T12:41:02;36.40;51.60
8539;DHT22;4307;53.868;11.680;2022-08-03T12:43:29;36.40;50.90
8539;DHT22;4307;53.868;11.680;2022-08-03T12:46:10;36.60;50.90
8539;DHT22;4307;53.868;11.680;2022-08-03T12:49:05;36.80;50.30
8539;DHT22;4307;53.868;11.680;2022-08-03T12:51:34;36.60;49.80
8539;DHT22;4307;53.868;11.680;2022-08-03T12:54:03;36.10;49.80
8539;DHT22;4307;53.868;11.680;2022-08-03T12:56:30;35.90;50.30
8539;DHT22;4307;53.868;11.680;2022-08-03T12:58:56;35.50;50.60
8539;DHT22;4307;53.868;11.680;2022-08-03T13:01:23;35.50;51.40
8539;DHT22;4307;53.868;11.680;2022-08-03T13:03:52;35.50;51.20
8539;DHT22;4307;53.868;11.680;2022-08-03T13:06:21;35.70;51.40
8539;DHT22;4307;53.868;11.680;2022-08-03T13:08:59;36.10;51.10
8539;DHT22;4307;53.868;11.680;2022-08-03T13:11:27;36.10;50.30
8539;DHT22;4307;53.868;11.680;2022-08-03T13:13:54;36.10;50.70
8539;DHT22;4307;53.868;11.680;2022-08-03T13:16:21;36.20;50.90
8539;DHT22;4307;53.868;11.680;2022-08-03T13:18:49;36.60;50.70
8539;DHT22;4307;53.868;11.680;2022-08-03T13:21:17;36.70;50.20
8539;DHT22;4307;53.868;11.680;2022-08-03T13:23:45;36.60;49.70
8539;DHT22;4307;53.868;11.680;2022-08-03T13:26:13;36.50;49.60
8539;DHT22;4307;53.868;11.680;2022-08-03T13:28:40;36.40;50.10
8539;DHT22;4307;53.868;11.680;2022-08-03T13:31:06;36.60;50.20
8539;DHT22;4307;53.868;11.680;2022-08-03T13:33:33;36.70;50.00
8539;DHT22;4307;53.868;11.680;2022-08-03T13:36:00;36.50;50.00
8539;DHT22;4307;53.868;11.680;2022-08-03T13:38:26;36.00;49.90
8539;DHT22;4307;53.868;11.680;2022-08-03T13:40:53;35.40;50.60
8539;DHT22;4307;53.868;11.680;2022-08-03T13:43:21;35.00;52.20
8539;DHT22;4307;53.868;11.680;2022-08-03T13:45:48;34.80;52.20
8539;DHT22;4307;53.868;11.680;2022-08-03T13:48:14;34.60;52.40
8539;DHT22;4307;53.868;11.680;2022-08-03T13:50:41;34.30;52.60
8539;DHT22;4307;53.868;11.680;2022-08-03T13:53:08;33.90;53.20
8539;DHT22;4307;53.868;11.680;2022-08-03T13:55:34;33.60;53.80
8539;DHT22;4307;53.868;11.680;2022-08-03T13:58:01;33.50;54.50
8539;DHT22;4307;53.868;11.680;2022-08-03T14:00:29;33.50;54.80
8539;DHT22;4307;53.868;11.680;2022-08-03T14:02:57;33.50;55.00
8539;DHT22;4307;53.868;11.680;2022-08-03T14:05:24;33.60;55.20
8539;DHT22;4307;53.868;11.680;2022-08-03T14:07:51;33.60;54.90
8539;DHT22;4307;53.868;11.680;2022-08-03T14:10:18;33.50;55.10
8539;DHT22;4307;53.868;11.680;2022-08-03T14:12:44;33.40;55.40
8539;DHT22;4307;53.868;11.680;2022-08-03T14:15:11;33.30;55.40
8539;DHT22;4307;53.868;11.680;2022-08-03T14:17:40;33.10;55.50
8539;DHT22;4307;53.868;11.680;2022-08-03T14:20:07;33.10;55.90
8539;DHT22;4307;53.868;11.680;2022-08-03T14:22:34;33.20;55.70
8539;DHT22;4307;53.868;11.680;2022-08-03T14:25:01;33.20;56.10
8539;DHT22;4307;53.868;11.680;2022-08-03T14:27:28;33.30;55.60
8539;DHT22;4307;53.868;11.680;2022-08-03T14:29:54;33.20;55.90
8539;DHT22;4307;53.868;11.680;2022-08-03T14:32:24;33.20;56.30
8539;DHT22;4307;53.868;11.680;2022-08-03T14:34:52;33.20;56.40
8539;DHT22;4307;53.868;11.680;2022-08-03T14:37:19;33.20;56.60
8539;DHT22;4307;53.868;11.680;2022-08-03T14:39:46;33.20;56.50
8539;DHT22;4307;53.868;11.680;2022-08-03T14:42:13;33.20;56.00
8539;DHT22;4307;53.868;11.680;2022-08-03T14:44:41;33.10;55.70
8539;DHT22;4307;53.868;11.680;2022-08-03T14:47:07;33.10;56.20
8539;DHT22;4307;53.868;11.680;2022-08-03T14:49:34;33.10;56.20
8539;DHT22;4307;53.868;11.680;2022-08-03T14:52:02;33.30;56.00
8539;DHT22;4307;53.868;11.680;2022-08-03T14:54:29;33.40;56.00
8539;DHT22;4307;53.868;11.680;2022-08-03T14:56:56;33.50;56.20
8539;DHT22;4307;53.868;11.680;2022-08-03T14:59:23;33.60;56.70
8539;DHT22;4307;53.868;11.680;2022-08-03T15:01:50;33.60;56.90
8539;DHT22;4307;53.868;11.680;2022-08-03T15:04:16;33.50;56.20
8539;DHT22;4307;53.868;11.680;2022-08-03T15:06:43;33.50;56.00
8539;DHT22;4307;53.868;11.680;2022-08-03T15:09:11;33.40;55.80
8539;DHT22;4307;53.868;11.680;2022-08-03T15:11:38;33.40;55.80
8539;DHT22;4307;53.868;11.680;2022-08-03T15:14:05;33.30;56.30
8539;DHT22;4307;53.868;11.680;2022-08-03T15:16:31;33.30;55.90
8539;DHT22;4307;53.868;11.680;2022-08-03T15:18:58;33.20;56.30
8539;DHT22;4307;53.868;11.680;2022-08-03T15:21:25;33.20;56.80
8539;DHT22;4307;53.868;11.680;2022-08-03T15:23:52;33.20;56.90
8539;DHT22;4307;53.868;11.680;2022-08-03T15:26:20;33.10;56.20
8539;DHT22;4307;53.868;11.680;2022-08-03T15:28:46;33.10;56.00
8539;DHT22;4307;53.868;11.680;2022-08-03T15:31:13;33.10;56.30
8539;DHT22;4307;53.868;11.680;2022-08-03T15:33:40;33.30;56.40
8539;DHT22;4307;53.868;11.680;2022-08-03T15:36:06;33.30;55.50
8539;DHT22;4307;53.868;11.680;2022-08-03T15:38:33;33.30;55.20
8539;DHT22;4307;53.868;11.680;2022-08-03T15:41:00;33.20;55.40
8539;DHT22;4307;53.868;11.680;2022-08-03T15:43:28;33.20;55.70
8539;DHT22;4307;53.868;11.680;2022-08-03T15:45:54;33.30;55.80
8539;DHT22;4307;53.868;11.680;2022-08-03T15:48:23;33.40;56.10
8539;DHT22;4307;53.868;11.680;2022-08-03T15:50:50;33.30;55.40
8539;DHT22;4307;53.868;11.680;2022-08-03T15:53:19;33.20;55.70
8539;DHT22;4307;53.868;11.680;2022-08-03T15:55:45;33.20;55.60